SAS508 KPNS-KPBI
Flight info
| Callsign | SAS508 |
|---|---|
| Flight time | 1h 12m |
| Altitude | 41000 |
| Route | CEW DEFUN VUUDU1 |
| Aircraft | A359/H-SDE2E3GHIJ3J4J5LM1ORWXY/LB1D1 |
Departure
| Time | 2026-04-24 23:17 |
|---|---|
| Airport | Pensacola International Airport (KPNS) |
Arrival
| Time | 2026-04-25 00:29 |
|---|---|
| Airport | Palm Beach International Airport (KPBI) |
| Time | Latitude | Longitude | Altitude | Speed | Heading |
|---|---|---|---|---|---|
| 2026-04-24 22:04 | 30.47412 | -87.19502 | 135 ft | 0 kts | 257° |
| 2026-04-24 22:56 | 30.47411 | -87.19508 | 135 ft | 4 kts | 257° |
| 2026-04-24 22:57 | 30.47396 | -87.19548 | 135 ft | 3 kts | 220° |
| 2026-04-24 22:57 | 30.47377 | -87.19547 | 130 ft | 3 kts | 168° |
| 2026-04-24 22:57 | 30.47345 | -87.19538 | 130 ft | 6 kts | 168° |
| 2026-04-24 22:57 | 30.47337 | -87.19536 | 135 ft | 0 kts | 168° |
| 2026-04-24 22:58 | 30.47310 | -87.19530 | 132 ft | 8 kts | 168° |
| 2026-04-24 22:58 | 30.47291 | -87.19495 | 135 ft | 5 kts | 91° |
| 2026-04-24 22:59 | 30.47300 | -87.19440 | 132 ft | 9 kts | 78° |
| 2026-04-24 22:59 | 30.47314 | -87.19361 | 131 ft | 12 kts | 78° |
| 2026-04-24 22:59 | 30.47356 | -87.19132 | 133 ft | 16 kts | 77° |
| 2026-04-24 23:00 | 30.47376 | -87.19025 | 135 ft | 10 kts | 74° |
| 2026-04-24 23:00 | 30.47431 | -87.18997 | 135 ft | 10 kts | 349° |
| 2026-04-24 23:00 | 30.47506 | -87.19015 | 135 ft | 12 kts | 347° |
| 2026-04-24 23:00 | 30.47598 | -87.19039 | 136 ft | 15 kts | 347° |
| 2026-04-24 23:01 | 30.47704 | -87.19067 | 136 ft | 15 kts | 347° |
| 2026-04-24 23:01 | 30.47818 | -87.19097 | 136 ft | 18 kts | 347° |
| 2026-04-24 23:01 | 30.47941 | -87.19131 | 136 ft | 16 kts | 346° |
| 2026-04-24 23:01 | 30.48052 | -87.19162 | 136 ft | 16 kts | 346° |
| 2026-04-24 23:02 | 30.48172 | -87.19193 | 137 ft | 17 kts | 347° |
| 2026-04-24 23:02 | 30.48235 | -87.19205 | 137 ft | 6 kts | 9° |
| 2026-04-24 23:02 | 30.48258 | -87.19171 | 137 ft | 4 kts | 74° |
| 2026-04-24 23:02 | 30.48259 | -87.19169 | 137 ft | 0 kts | 74° |
| 2026-04-24 23:15 | 30.48259 | -87.19166 | 137 ft | 3 kts | 74° |
| 2026-04-24 23:15 | 30.48275 | -87.19102 | 138 ft | 9 kts | 74° |
| 2026-04-24 23:16 | 30.48263 | -87.19053 | 137 ft | 5 kts | 154° |
| 2026-04-24 23:16 | 30.48240 | -87.19049 | 138 ft | 0 kts | 167° |
| 2026-04-24 23:16 | 30.48231 | -87.19046 | 138 ft | 16 kts | 167° |
| 2026-04-24 23:16 | 30.47825 | -87.18936 | 137 ft | 101 kts | 167° |
| 2026-04-24 23:17 | 30.46899 | -87.18690 | 190 ft | 165 kts | 167° |
| 2026-04-24 23:17 | 30.45762 | -87.18333 | 961 ft | 170 kts | 158° |
| 2026-04-24 23:17 | 30.45062 | -87.17279 | 1888 ft | 173 kts | 103° |
| 2026-04-24 23:17 | 30.45329 | -87.15846 | 2390 ft | 203 kts | 58° |
| 2026-04-24 23:18 | 30.46559 | -87.14834 | 2698 ft | 237 kts | 16° |
| 2026-04-24 23:18 | 30.48197 | -87.14176 | 3173 ft | 260 kts | 30° |
| 2026-04-24 23:18 | 30.49687 | -87.12929 | 3961 ft | 269 kts | 42° |
| 2026-04-24 23:18 | 30.51005 | -87.11365 | 4864 ft | 274 kts | 49° |
| 2026-04-24 23:19 | 30.52227 | -87.09648 | 5766 ft | 279 kts | 52° |
| 2026-04-24 23:19 | 30.53432 | -87.07859 | 6684 ft | 284 kts | 52° |
| 2026-04-24 23:19 | 30.54660 | -87.06043 | 7686 ft | 288 kts | 52° |
| 2026-04-24 23:19 | 30.55920 | -87.04228 | 8754 ft | 290 kts | 51° |
| 2026-04-24 23:20 | 30.57217 | -87.02415 | 9753 ft | 294 kts | 50° |
| 2026-04-24 23:20 | 30.58560 | -87.00574 | 10541 ft | 307 kts | 49° |
| 2026-04-24 23:20 | 30.60005 | -86.98615 | 10992 ft | 331 kts | 48° |
| 2026-04-24 23:20 | 30.61538 | -86.96547 | 11671 ft | 343 kts | 48° |
| 2026-04-24 23:21 | 30.63108 | -86.94430 | 12551 ft | 349 kts | 47° |
| 2026-04-24 23:21 | 30.64704 | -86.92273 | 13424 ft | 354 kts | 47° |
| 2026-04-24 23:21 | 30.66318 | -86.90088 | 14307 ft | 359 kts | 47° |
| 2026-04-24 23:21 | 30.67953 | -86.87873 | 15152 ft | 364 kts | 47° |
| 2026-04-24 23:22 | 30.69608 | -86.85628 | 16013 ft | 368 kts | 47° |
| 2026-04-24 23:22 | 30.71280 | -86.83358 | 16831 ft | 372 kts | 46° |
| 2026-04-24 23:22 | 30.72975 | -86.81054 | 17614 ft | 377 kts | 46° |
| 2026-04-24 23:22 | 30.74689 | -86.78726 | 18382 ft | 381 kts | 46° |
| 2026-04-24 23:23 | 30.76423 | -86.76369 | 19139 ft | 386 kts | 46° |
| 2026-04-24 23:23 | 30.78177 | -86.73983 | 19866 ft | 391 kts | 46° |
| 2026-04-24 23:23 | 30.79844 | -86.71500 | 20580 ft | 398 kts | 53° |
| 2026-04-24 23:23 | 30.81218 | -86.68680 | 21297 ft | 406 kts | 63° |
| 2026-04-24 23:24 | 30.82138 | -86.65545 | 22017 ft | 414 kts | 75° |
| 2026-04-24 23:24 | 30.82497 | -86.62192 | 22675 ft | 423 kts | 86° |
| 2026-04-24 23:24 | 30.82483 | -86.58752 | 23355 ft | 428 kts | 90° |
| 2026-04-24 23:24 | 30.82399 | -86.55278 | 24025 ft | 432 kts | 90° |
| 2026-04-24 23:25 | 30.82312 | -86.51766 | 24656 ft | 437 kts | 90° |
| 2026-04-24 23:25 | 30.82227 | -86.48218 | 25305 ft | 440 kts | 90° |
| 2026-04-24 23:25 | 30.82145 | -86.44638 | 25897 ft | 445 kts | 90° |
| 2026-04-24 23:25 | 30.82064 | -86.41018 | 26484 ft | 449 kts | 90° |
| 2026-04-24 23:26 | 30.81982 | -86.37371 | 27055 ft | 453 kts | 90° |
| 2026-04-24 23:26 | 30.81901 | -86.33691 | 27603 ft | 458 kts | 90° |
| 2026-04-24 23:26 | 30.81817 | -86.29978 | 28153 ft | 461 kts | 90° |
| 2026-04-24 23:26 | 30.81732 | -86.26229 | 28702 ft | 465 kts | 90° |
| 2026-04-24 23:27 | 30.81645 | -86.22451 | 29201 ft | 469 kts | 90° |
| 2026-04-24 23:27 | 30.81555 | -86.18646 | 29755 ft | 473 kts | 90° |
| 2026-04-24 23:27 | 30.81464 | -86.14803 | 30218 ft | 477 kts | 90° |
| 2026-04-24 23:27 | 30.81373 | -86.10935 | 30690 ft | 480 kts | 90° |
| 2026-04-24 23:28 | 30.81274 | -86.07047 | 31198 ft | 482 kts | 90° |
| 2026-04-24 23:28 | 30.81169 | -86.03141 | 31682 ft | 484 kts | 90° |
| 2026-04-24 23:28 | 30.81062 | -85.99219 | 32136 ft | 486 kts | 90° |
| 2026-04-24 23:28 | 30.80956 | -85.95285 | 32587 ft | 488 kts | 90° |
| 2026-04-24 23:29 | 30.80848 | -85.91328 | 33039 ft | 490 kts | 90° |
| 2026-04-24 23:29 | 30.80739 | -85.87362 | 33441 ft | 492 kts | 90° |
| 2026-04-24 23:29 | 30.80628 | -85.83381 | 33844 ft | 494 kts | 90° |
| 2026-04-24 23:29 | 30.80515 | -85.79375 | 34209 ft | 496 kts | 90° |
| 2026-04-24 23:30 | 30.80401 | -85.75354 | 34572 ft | 498 kts | 90° |
| 2026-04-24 23:30 | 30.80286 | -85.71330 | 35026 ft | 497 kts | 90° |
| 2026-04-24 23:30 | 30.80168 | -85.67315 | 35436 ft | 498 kts | 90° |
| 2026-04-24 23:30 | 30.80052 | -85.63343 | 35816 ft | 498 kts | 90° |
| 2026-04-24 23:31 | 30.79932 | -85.59272 | 36211 ft | 498 kts | 90° |
| 2026-04-24 23:31 | 30.79813 | -85.55304 | 36568 ft | 498 kts | 90° |
| 2026-04-24 23:31 | 30.79692 | -85.51276 | 36885 ft | 498 kts | 90° |
| 2026-04-24 23:31 | 30.79569 | -85.47249 | 37262 ft | 497 kts | 91° |
| 2026-04-24 23:32 | 30.79444 | -85.43243 | 37689 ft | 495 kts | 91° |
| 2026-04-24 23:32 | 30.79320 | -85.39258 | 38074 ft | 493 kts | 91° |
| 2026-04-24 23:32 | 30.79194 | -85.35278 | 38421 ft | 492 kts | 91° |
| 2026-04-24 23:32 | 30.79069 | -85.31312 | 38723 ft | 492 kts | 91° |
| 2026-04-24 23:33 | 30.78941 | -85.27335 | 38969 ft | 492 kts | 91° |
| 2026-04-24 23:33 | 30.78856 | -85.24694 | 39135 ft | 493 kts | 91° |
| 2026-04-24 23:33 | 30.78683 | -85.19362 | 39450 ft | 494 kts | 91° |
| 2026-04-24 23:33 | 30.78551 | -85.15370 | 39677 ft | 495 kts | 91° |
| 2026-04-24 23:34 | 30.78418 | -85.11367 | 39894 ft | 495 kts | 91° |
| 2026-04-24 23:34 | 30.78284 | -85.07361 | 40128 ft | 496 kts | 90° |
| 2026-04-24 23:34 | 30.78147 | -85.03351 | 40328 ft | 496 kts | 90° |
| 2026-04-24 23:34 | 30.78010 | -84.99344 | 40546 ft | 497 kts | 90° |
| 2026-04-24 23:35 | 30.77871 | -84.95328 | 40727 ft | 498 kts | 90° |
| 2026-04-24 23:35 | 30.77730 | -84.91304 | 40898 ft | 499 kts | 90° |
| 2026-04-24 23:35 | 30.77411 | -84.87261 | 40932 ft | 505 kts | 98° |
| 2026-04-24 23:35 | 30.76563 | -84.83285 | 40937 ft | 511 kts | 109° |
| 2026-04-24 23:36 | 30.75115 | -84.79493 | 40940 ft | 515 kts | 119° |
| 2026-04-24 23:36 | 30.71418 | -84.72311 | 40941 ft | 518 kts | 122° |
| 2026-04-24 23:37 | 30.67659 | -84.65165 | 40950 ft | 518 kts | 121° |
| 2026-04-24 23:37 | 30.62034 | -84.54439 | 40961 ft | 519 kts | 121° |
| 2026-04-24 23:38 | 30.58283 | -84.47290 | 40961 ft | 519 kts | 121° |
| 2026-04-24 23:38 | 30.54526 | -84.40142 | 40953 ft | 519 kts | 121° |
| 2026-04-24 23:39 | 30.50773 | -84.33014 | 40948 ft | 519 kts | 121° |
| 2026-04-24 23:39 | 30.47029 | -84.25915 | 40943 ft | 519 kts | 121° |
| 2026-04-24 23:40 | 30.43255 | -84.18772 | 40944 ft | 520 kts | 122° |
| 2026-04-24 23:40 | 30.39437 | -84.11673 | 40940 ft | 519 kts | 125° |
| 2026-04-24 23:41 | 30.37149 | -84.08450 | 40944 ft | 517 kts | 136° |
| 2026-04-24 23:41 | 30.34412 | -84.05770 | 40943 ft | 514 kts | 147° |
| 2026-04-24 23:41 | 30.28283 | -84.01549 | 40943 ft | 513 kts | 153° |
| 2026-04-24 23:42 | 30.22067 | -83.97461 | 40953 ft | 514 kts | 152° |
| 2026-04-24 23:42 | 30.15852 | -83.93356 | 40952 ft | 514 kts | 152° |
| 2026-04-24 23:43 | 30.09637 | -83.89249 | 40952 ft | 514 kts | 152° |
| 2026-04-24 23:43 | 30.03424 | -83.85148 | 40957 ft | 514 kts | 152° |
| 2026-04-24 23:44 | 29.97211 | -83.81050 | 40961 ft | 514 kts | 152° |
| 2026-04-24 23:44 | 29.92044 | -83.77648 | 40963 ft | 515 kts | 152° |
| 2026-04-24 23:45 | 29.85828 | -83.73559 | 40961 ft | 514 kts | 152° |
| 2026-04-24 23:45 | 29.78556 | -83.68789 | 40961 ft | 514 kts | 152° |
| 2026-04-24 23:46 | 29.73390 | -83.65400 | 40961 ft | 514 kts | 152° |
| 2026-04-24 23:46 | 29.67171 | -83.61325 | 40952 ft | 514 kts | 153° |
| 2026-04-24 23:47 | 29.60953 | -83.57258 | 40952 ft | 514 kts | 153° |
| 2026-04-24 23:47 | 29.54739 | -83.53201 | 40952 ft | 514 kts | 153° |
| 2026-04-24 23:48 | 29.48562 | -83.49173 | 40952 ft | 514 kts | 153° |
| 2026-04-24 23:48 | 29.42341 | -83.45122 | 40952 ft | 514 kts | 153° |
| 2026-04-24 23:49 | 29.36125 | -83.41080 | 40952 ft | 514 kts | 153° |
| 2026-04-24 23:49 | 29.29907 | -83.37044 | 40952 ft | 514 kts | 153° |
| 2026-04-24 23:50 | 29.23818 | -83.32735 | 40954 ft | 516 kts | 146° |
| 2026-04-24 23:50 | 29.18074 | -83.27826 | 40952 ft | 516 kts | 145° |
| 2026-04-24 23:51 | 29.12322 | -83.22885 | 40952 ft | 517 kts | 145° |
| 2026-04-24 23:51 | 29.06567 | -83.17957 | 40955 ft | 517 kts | 145° |
| 2026-04-24 23:52 | 29.00809 | -83.13037 | 40961 ft | 517 kts | 145° |
| 2026-04-24 23:52 | 28.95046 | -83.08122 | 40961 ft | 517 kts | 145° |
| 2026-04-24 23:53 | 28.89280 | -83.03211 | 40961 ft | 517 kts | 145° |
| 2026-04-24 23:53 | 28.83511 | -82.98304 | 40960 ft | 518 kts | 145° |
| 2026-04-24 23:54 | 28.77732 | -82.93396 | 40961 ft | 518 kts | 145° |
| 2026-04-24 23:54 | 28.71951 | -82.88493 | 40964 ft | 518 kts | 145° |
| 2026-04-24 23:55 | 28.66201 | -82.83623 | 40963 ft | 518 kts | 145° |
| 2026-04-24 23:55 | 28.60419 | -82.78733 | 40965 ft | 518 kts | 145° |
| 2026-04-24 23:56 | 28.54626 | -82.73842 | 40962 ft | 518 kts | 145° |
| 2026-04-24 23:56 | 28.48834 | -82.68957 | 40965 ft | 518 kts | 145° |
| 2026-04-24 23:57 | 28.43039 | -82.64078 | 40964 ft | 519 kts | 145° |
| 2026-04-24 23:57 | 28.37237 | -82.59198 | 40965 ft | 519 kts | 145° |
| 2026-04-24 23:58 | 28.31629 | -82.54488 | 40963 ft | 520 kts | 145° |
| 2026-04-24 23:58 | 28.25818 | -82.49616 | 40953 ft | 520 kts | 145° |
| 2026-04-24 23:59 | 28.19999 | -82.44742 | 40965 ft | 520 kts | 145° |
| 2026-04-24 23:59 | 28.14182 | -82.39878 | 40960 ft | 520 kts | 145° |
| 2026-04-25 00:00 | 28.08356 | -82.35012 | 40953 ft | 520 kts | 145° |
| 2026-04-25 00:00 | 28.02323 | -82.30611 | 40630 ft | 505 kts | 159° |
| 2026-04-25 00:01 | 27.99077 | -82.29232 | 39618 ft | 497 kts | 166° |
| 2026-04-25 00:01 | 27.95748 | -82.28102 | 38203 ft | 502 kts | 167° |
| 2026-04-25 00:01 | 27.92379 | -82.26993 | 36804 ft | 505 kts | 166° |
| 2026-04-25 00:01 | 27.89012 | -82.25876 | 35535 ft | 504 kts | 166° |
| 2026-04-25 00:02 | 27.85652 | -82.24752 | 34283 ft | 502 kts | 166° |
| 2026-04-25 00:02 | 27.82318 | -82.23632 | 33418 ft | 498 kts | 166° |
| 2026-04-25 00:02 | 27.79015 | -82.22519 | 32907 ft | 493 kts | 166° |
| 2026-04-25 00:02 | 27.75748 | -82.21418 | 32407 ft | 488 kts | 166° |
| 2026-04-25 00:03 | 27.72504 | -82.20323 | 31906 ft | 483 kts | 166° |
| 2026-04-25 00:03 | 27.69296 | -82.19243 | 31410 ft | 479 kts | 166° |
| 2026-04-25 00:03 | 27.66118 | -82.18173 | 30919 ft | 474 kts | 166° |
| 2026-04-25 00:03 | 27.62972 | -82.17115 | 30424 ft | 470 kts | 166° |
| 2026-04-25 00:04 | 27.59851 | -82.16071 | 29924 ft | 466 kts | 167° |
| 2026-04-25 00:04 | 27.56791 | -82.15064 | 29436 ft | 462 kts | 167° |
| 2026-04-25 00:04 | 27.53681 | -82.14042 | 28942 ft | 458 kts | 167° |
| 2026-04-25 00:04 | 27.50643 | -82.13043 | 28456 ft | 454 kts | 167° |
| 2026-04-25 00:05 | 27.47663 | -82.12065 | 27981 ft | 450 kts | 167° |
| 2026-04-25 00:05 | 27.44674 | -82.11083 | 27501 ft | 446 kts | 167° |
| 2026-04-25 00:05 | 27.41711 | -82.10110 | 27024 ft | 442 kts | 166° |
| 2026-04-25 00:05 | 27.38781 | -82.09147 | 26634 ft | 435 kts | 167° |
| 2026-04-25 00:06 | 27.35887 | -82.08198 | 26146 ft | 432 kts | 166° |
| 2026-04-25 00:06 | 27.33014 | -82.07257 | 25793 ft | 428 kts | 166° |
| 2026-04-25 00:06 | 27.30146 | -82.06301 | 25639 ft | 431 kts | 166° |
| 2026-04-25 00:06 | 27.27272 | -82.05334 | 25464 ft | 432 kts | 166° |
| 2026-04-25 00:07 | 27.24393 | -82.04367 | 25287 ft | 431 kts | 166° |
| 2026-04-25 00:07 | 27.21521 | -82.03406 | 25094 ft | 430 kts | 166° |
| 2026-04-25 00:07 | 27.18662 | -82.02449 | 24912 ft | 429 kts | 166° |
| 2026-04-25 00:07 | 27.15800 | -82.01492 | 24725 ft | 428 kts | 166° |
| 2026-04-25 00:08 | 27.12958 | -82.00542 | 24543 ft | 426 kts | 166° |
| 2026-04-25 00:08 | 27.10115 | -81.99594 | 24358 ft | 425 kts | 166° |
| 2026-04-25 00:08 | 27.07290 | -81.98650 | 24180 ft | 424 kts | 166° |
| 2026-04-25 00:08 | 27.04550 | -81.97424 | 23990 ft | 425 kts | 153° |
| 2026-04-25 00:09 | 27.02195 | -81.95425 | 23757 ft | 427 kts | 135° |
| 2026-04-25 00:09 | 27.00238 | -81.92930 | 23476 ft | 426 kts | 130° |
| 2026-04-25 00:09 | 26.98367 | -81.90361 | 23209 ft | 425 kts | 130° |
| 2026-04-25 00:09 | 26.96500 | -81.87795 | 22946 ft | 424 kts | 130° |
| 2026-04-25 00:10 | 26.94636 | -81.85248 | 22693 ft | 421 kts | 130° |
| 2026-04-25 00:10 | 26.92779 | -81.82720 | 22428 ft | 419 kts | 130° |
| 2026-04-25 00:10 | 26.90924 | -81.80203 | 22165 ft | 418 kts | 130° |
| 2026-04-25 00:10 | 26.89075 | -81.77699 | 21903 ft | 416 kts | 130° |
| 2026-04-25 00:11 | 26.87233 | -81.75208 | 21647 ft | 414 kts | 131° |
| 2026-04-25 00:11 | 26.85397 | -81.72735 | 21383 ft | 413 kts | 131° |
| 2026-04-25 00:11 | 26.83538 | -81.70290 | 21123 ft | 411 kts | 131° |
| 2026-04-25 00:11 | 26.81679 | -81.67861 | 20873 ft | 409 kts | 131° |
| 2026-04-25 00:12 | 26.79834 | -81.65449 | 20624 ft | 407 kts | 131° |
| 2026-04-25 00:12 | 26.77997 | -81.63045 | 20365 ft | 405 kts | 131° |
| 2026-04-25 00:12 | 26.76171 | -81.60653 | 20108 ft | 404 kts | 131° |
| 2026-04-25 00:12 | 26.74351 | -81.58271 | 19888 ft | 402 kts | 131° |
| 2026-04-25 00:13 | 26.72539 | -81.55897 | 19652 ft | 400 kts | 132° |
| 2026-04-25 00:13 | 26.70923 | -81.53351 | 19636 ft | 403 kts | 120° |
| 2026-04-25 00:13 | 26.69895 | -81.50439 | 19616 ft | 404 kts | 103° |
| 2026-04-25 00:13 | 26.69602 | -81.47325 | 19381 ft | 401 kts | 90° |
| 2026-04-25 00:14 | 26.69584 | -81.44206 | 19132 ft | 401 kts | 89° |
| 2026-04-25 00:14 | 26.69606 | -81.41132 | 18884 ft | 400 kts | 89° |
| 2026-04-25 00:14 | 26.69632 | -81.38033 | 18630 ft | 397 kts | 89° |
| 2026-04-25 00:14 | 26.69656 | -81.34975 | 18253 ft | 391 kts | 88° |
| 2026-04-25 00:15 | 26.69680 | -81.31901 | 17767 ft | 389 kts | 88° |
| 2026-04-25 00:15 | 26.69703 | -81.28884 | 17263 ft | 387 kts | 88° |
| 2026-04-25 00:15 | 26.69726 | -81.25882 | 16763 ft | 385 kts | 88° |
| 2026-04-25 00:15 | 26.69747 | -81.22902 | 16261 ft | 382 kts | 88° |
| 2026-04-25 00:16 | 26.69767 | -81.19947 | 15772 ft | 378 kts | 88° |
| 2026-04-25 00:16 | 26.69787 | -81.17058 | 15286 ft | 375 kts | 88° |
| 2026-04-25 00:16 | 26.69806 | -81.14121 | 14795 ft | 372 kts | 88° |
| 2026-04-25 00:16 | 26.69824 | -81.11278 | 14312 ft | 368 kts | 88° |
| 2026-04-25 00:17 | 26.69841 | -81.08427 | 13827 ft | 365 kts | 88° |
| 2026-04-25 00:17 | 26.69858 | -81.05566 | 13339 ft | 362 kts | 88° |
| 2026-04-25 00:17 | 26.69873 | -81.02803 | 12870 ft | 359 kts | 89° |
| 2026-04-25 00:17 | 26.69888 | -81.00022 | 12384 ft | 355 kts | 89° |
| 2026-04-25 00:18 | 26.69899 | -80.97268 | 11927 ft | 353 kts | 89° |
| 2026-04-25 00:18 | 26.69913 | -80.94539 | 11453 ft | 349 kts | 89° |
| 2026-04-25 00:18 | 26.69928 | -80.91832 | 10984 ft | 346 kts | 89° |
| 2026-04-25 00:18 | 26.69941 | -80.89151 | 10526 ft | 344 kts | 89° |
| 2026-04-25 00:19 | 26.69954 | -80.86501 | 10198 ft | 335 kts | 89° |
| 2026-04-25 00:19 | 26.69965 | -80.83949 | 10072 ft | 321 kts | 89° |
| 2026-04-25 00:19 | 26.69974 | -80.81506 | 9928 ft | 307 kts | 89° |
| 2026-04-25 00:19 | 26.69985 | -80.79140 | 9671 ft | 304 kts | 89° |
| 2026-04-25 00:20 | 26.69998 | -80.76788 | 9327 ft | 301 kts | 89° |
| 2026-04-25 00:20 | 26.70006 | -80.74448 | 8979 ft | 300 kts | 89° |
| 2026-04-25 00:20 | 26.70013 | -80.72125 | 8624 ft | 298 kts | 89° |
| 2026-04-25 00:20 | 26.70020 | -80.69823 | 8284 ft | 295 kts | 89° |
| 2026-04-25 00:21 | 26.70026 | -80.67536 | 7938 ft | 293 kts | 89° |
| 2026-04-25 00:21 | 26.70032 | -80.65262 | 7595 ft | 291 kts | 89° |
| 2026-04-25 00:21 | 26.70040 | -80.63003 | 7253 ft | 289 kts | 89° |
| 2026-04-25 00:21 | 26.70045 | -80.60763 | 6929 ft | 287 kts | 89° |
| 2026-04-25 00:22 | 26.70051 | -80.58545 | 6580 ft | 284 kts | 89° |
| 2026-04-25 00:22 | 26.70057 | -80.56337 | 6246 ft | 283 kts | 89° |
| 2026-04-25 00:22 | 26.70062 | -80.54144 | 5920 ft | 281 kts | 90° |
| 2026-04-25 00:22 | 26.70066 | -80.51965 | 5587 ft | 279 kts | 90° |
| 2026-04-25 00:23 | 26.70070 | -80.49804 | 5262 ft | 277 kts | 90° |
| 2026-04-25 00:23 | 26.70074 | -80.47656 | 4934 ft | 275 kts | 90° |
| 2026-04-25 00:23 | 26.70022 | -80.45526 | 4608 ft | 273 kts | 93° |
| 2026-04-25 00:23 | 26.69883 | -80.43420 | 4268 ft | 271 kts | 95° |
| 2026-04-25 00:24 | 26.69730 | -80.41325 | 4032 ft | 270 kts | 95° |
| 2026-04-25 00:24 | 26.69576 | -80.39233 | 3996 ft | 270 kts | 95° |
| 2026-04-25 00:24 | 26.69436 | -80.37176 | 3995 ft | 265 kts | 94° |
| 2026-04-25 00:24 | 26.69348 | -80.35189 | 3986 ft | 247 kts | 92° |
| 2026-04-25 00:25 | 26.69296 | -80.33337 | 3983 ft | 230 kts | 92° |
| 2026-04-25 00:25 | 26.69222 | -80.31575 | 3831 ft | 225 kts | 93° |
| 2026-04-25 00:25 | 26.69142 | -80.29833 | 3525 ft | 224 kts | 93° |
| 2026-04-25 00:25 | 26.69069 | -80.28095 | 3166 ft | 225 kts | 93° |
| 2026-04-25 00:26 | 26.68993 | -80.26348 | 2799 ft | 225 kts | 93° |
| 2026-04-25 00:26 | 26.68919 | -80.24612 | 2492 ft | 222 kts | 93° |
| 2026-04-25 00:26 | 26.68846 | -80.22933 | 2203 ft | 209 kts | 93° |
| 2026-04-25 00:26 | 26.68778 | -80.21375 | 1938 ft | 192 kts | 94° |
| 2026-04-25 00:27 | 26.68713 | -80.19936 | 1701 ft | 182 kts | 93° |
| 2026-04-25 00:27 | 26.68654 | -80.18533 | 1446 ft | 181 kts | 93° |
| 2026-04-25 00:27 | 26.68593 | -80.17127 | 1209 ft | 181 kts | 94° |
| 2026-04-25 00:27 | 26.68533 | -80.15730 | 964 ft | 175 kts | 93° |
| 2026-04-25 00:28 | 26.68476 | -80.14431 | 738 ft | 161 kts | 93° |
| 2026-04-25 00:28 | 26.68424 | -80.13224 | 534 ft | 150 kts | 93° |
| 2026-04-25 00:28 | 26.68374 | -80.12106 | 328 ft | 139 kts | 94° |
| 2026-04-25 00:28 | 26.68330 | -80.11056 | 153 ft | 130 kts | 92° |
| 2026-04-25 00:29 | 26.68292 | -80.10053 | 43 ft | 128 kts | 93° |
| 2026-04-25 00:29 | 26.68250 | -80.09153 | 33 ft | 100 kts | 93° |
| 2026-04-25 00:29 | 26.68223 | -80.08536 | 37 ft | 55 kts | 92° |
| 2026-04-25 00:29 | 26.68214 | -80.08295 | 40 ft | 17 kts | 92° |
| 2026-04-25 00:30 | 26.68227 | -80.08218 | 41 ft | 9 kts | 79° |
| 2026-04-25 00:30 | 26.68254 | -80.08162 | 42 ft | 8 kts | 32° |
| 2026-04-25 00:30 | 26.68281 | -80.08159 | 42 ft | 0 kts | 359° |
| 2026-04-25 00:31 | 26.68286 | -80.08159 | 42 ft | 3 kts | 359° |
| 2026-04-25 00:31 | 26.68314 | -80.08175 | 41 ft | 5 kts | 309° |
| 2026-04-25 00:31 | 26.68319 | -80.08234 | 42 ft | 11 kts | 272° |
| 2026-04-25 00:31 | 26.68324 | -80.08350 | 39 ft | 19 kts | 272° |
| 2026-04-25 00:32 | 26.68330 | -80.08511 | 37 ft | 22 kts | 272° |
| 2026-04-25 00:32 | 26.68338 | -80.08685 | 35 ft | 21 kts | 272° |
| 2026-04-25 00:32 | 26.68345 | -80.08861 | 30 ft | 23 kts | 272° |
| 2026-04-25 00:32 | 26.68349 | -80.08969 | 30 ft | 16 kts | 272° |
| 2026-04-25 00:33 | 26.68356 | -80.09121 | 32 ft | 12 kts | 275° |
| 2026-04-25 00:33 | 26.68407 | -80.09147 | 31 ft | 8 kts | 31° |
| 2026-04-25 00:33 | 26.68458 | -80.09093 | 31 ft | 12 kts | 41° |
| 2026-04-25 00:33 | 26.68532 | -80.09084 | 31 ft | 12 kts | 354° |
| 2026-04-25 00:34 | 26.68578 | -80.09133 | 32 ft | 9 kts | 289° |
| 2026-04-25 00:34 | 26.68606 | -80.09172 | 32 ft | 6 kts | 326° |
| 2026-04-25 00:34 | 26.68642 | -80.09200 | 32 ft | 6 kts | 325° |
| 2026-04-25 00:34 | 26.68675 | -80.09234 | 35 ft | 5 kts | 317° |
| 2026-04-25 00:35 | 26.68681 | -80.09240 | 35 ft | 0 kts | 318° |